Time;durP1;ratioP1;P1;durP2;ratioP2;P2;SDS_P1;SDS_P2;PMS_P1;PMS_P2;Temp;Humidity;BMP_temperature;BMP_pressure;BME280_temperature;BME280_humidity;BME280_pressure;Samples;Min_cycle;Max_cycle;Signal;HPM_P1;HPM_P2
2021/04/14 00:01:23;;;;;;;;;;;19.40;39.10;;;;;;500247;237;1213;-44
2021/04/14 00:03:25;;;;;;;;;;;19.20;39.30;;;;;;500205;237;1079;-44
2021/04/14 00:05:26;;;;;;;;;;;19.20;39.50;;;;;;500326;237;1061;-44
2021/04/14 00:07:27;;;;;;;;;;;19.10;39.60;;;;;;500288;237;1139;-44
2021/04/14 00:09:28;;;;;;;;;;;19.00;39.80;;;;;;500134;237;962;-43
2021/04/14 00:11:30;;;;;;;;;;;18.90;39.80;;;;;;500134;237;1108;-44
2021/04/14 00:13:33;;;;;;;;;;;18.90;40.00;;;;;;500185;237;1024;-44
2021/04/14 00:15:32;;;;;;;;;;;18.90;40.10;;;;;;500167;237;1485;-44
2021/04/14 00:17:34;;;;;;;;;;;18.80;40.20;;;;;;500251;237;1339;-44
2021/04/14 00:19:35;;;;;;;;;;;18.70;40.20;;;;;;500261;237;2176;-46
2021/04/14 00:21:36;;;;;;;;;;;18.70;40.30;;;;;;500196;237;1112;-47
2021/04/14 00:23:37;;;;;;;;;;;18.60;40.40;;;;;;500244;237;1015;-46
2021/04/14 00:25:42;;;;;;;;;;;18.60;40.40;;;;;;500199;237;1075;-46
2021/04/14 00:27:40;;;;;;;;;;;18.60;40.50;;;;;;500170;237;2127;-46
2021/04/14 00:29:41;;;;;;;;;;;18.50;40.60;;;;;;500324;237;1063;-46
2021/04/14 00:31:42;;;;;;;;;;;18.50;40.60;;;;;;500142;237;1245;-46
2021/04/14 00:33:44;;;;;;;;;;;18.50;40.70;;;;;;500144;237;983;-46
2021/04/14 00:35:45;;;;;;;;;;;18.40;40.70;;;;;;500175;237;1054;-46
2021/04/14 00:37:46;;;;;;;;;;;18.40;40.80;;;;;;500106;237;1174;-46
2021/04/14 00:39:48;;;;;;;;;;;18.40;40.90;;;;;;500113;237;2203;-46
2021/04/14 00:41:49;;;;;;;;;;;18.40;40.90;;;;;;500164;237;1220;-46
2021/04/14 00:43:50;;;;;;;;;;;18.30;40.90;;;;;;500270;237;1182;-46
2021/04/14 00:45:51;;;;;;;;;;;18.30;41.00;;;;;;500251;237;1275;-46
2021/04/14 00:47:53;;;;;;;;;;;18.20;41.00;;;;;;500247;237;1100;-46
2021/04/14 00:49:54;;;;;;;;;;;18.20;41.00;;;;;;500206;237;1049;-46
2021/04/14 00:51:55;;;;;;;;;;;18.20;41.00;;;;;;500176;237;1052;-46
2021/04/14 00:53:57;;;;;;;;;;;18.20;41.10;;;;;;500437;237;1041;-46
2021/04/14 00:55:58;;;;;;;;;;;18.20;41.10;;;;;;500182;237;971;-46
2021/04/14 00:57:59;;;;;;;;;;;18.10;41.10;;;;;;500190;237;1073;-46
2021/04/14 01:00:00;;;;;;;;;;;18.10;41.20;;;;;;500219;237;2146;-46
2021/04/14 01:02:02;;;;;;;;;;;18.10;41.10;;;;;;500188;237;1232;-46
2021/04/14 01:04:03;;;;;;;;;;;18.10;41.20;;;;;;500573;237;1050;-46
2021/04/14 01:06:04;;;;;;;;;;;18.10;41.20;;;;;;500159;237;1037;-46
2021/04/14 01:08:05;;;;;;;;;;;18.10;41.30;;;;;;500393;237;1041;-46
2021/04/14 01:10:07;;;;;;;;;;;18.00;41.20;;;;;;500199;237;1078;-46
2021/04/14 01:12:08;;;;;;;;;;;18.00;41.30;;;;;;500256;237;1080;-46
2021/04/14 01:14:09;;;;;;;;;;;18.00;41.30;;;;;;500173;237;1106;-46
2021/04/14 01:16:11;;;;;;;;;;;18.00;41.30;;;;;;500162;237;1410;-46
2021/04/14 01:18:12;;;;;;;;;;;17.90;41.30;;;;;;500142;237;1270;-44
2021/04/14 01:20:13;;;;;;;;;;;17.90;41.30;;;;;;500191;237;2156;-44
2021/04/14 01:22:14;;;;;;;;;;;17.90;41.30;;;;;;500173;237;1153;-44
2021/04/14 01:24:17;;;;;;;;;;;17.90;41.30;;;;;;500224;237;1047;-47
2021/04/14 01:26:17;;;;;;;;;;;17.90;41.40;;;;;;500089;237;1157;-46
2021/04/14 01:28:19;;;;;;;;;;;17.90;41.40;;;;;;500438;237;1091;-46
2021/04/14 01:30:20;;;;;;;;;;;17.90;41.40;;;;;;500238;237;1123;-46
2021/04/14 01:32:21;;;;;;;;;;;17.80;41.40;;;;;;500437;237;1617;-46
2021/04/14 01:34:23;;;;;;;;;;;17.80;41.40;;;;;;500143;237;1068;-46
2021/04/14 01:36:24;;;;;;;;;;;17.80;41.40;;;;;;500180;237;1550;-46
2021/04/14 01:38:25;;;;;;;;;;;17.90;41.40;;;;;;500512;237;1033;-46
2021/04/14 01:40:27;;;;;;;;;;;17.80;41.40;;;;;;500142;237;2191;-46
2021/04/14 01:42:28;;;;;;;;;;;17.80;41.40;;;;;;500211;237;1226;-46
2021/04/14 01:44:29;;;;;;;;;;;17.80;41.40;;;;;;500155;237;1049;-46
2021/04/14 01:46:30;;;;;;;;;;;17.80;41.50;;;;;;500105;237;1116;-46
2021/04/14 01:48:32;;;;;;;;;;;17.80;41.50;;;;;;500386;237;1061;-46
2021/04/14 01:50:33;;;;;;;;;;;17.80;41.40;;;;;;500195;237;1199;-46
2021/04/14 01:52:34;;;;;;;;;;;17.70;41.40;;;;;;500192;237;963;-46
2021/04/14 01:54:36;;;;;;;;;;;17.70;41.40;;;;;;500149;237;1087;-46
2021/04/14 01:56:38;;;;;;;;;;;17.70;41.50;;;;;;500283;237;1037;-46
2021/04/14 01:58:38;;;;;;;;;;;17.70;41.50;;;;;;500203;237;1675;-46
2021/04/14 02:00:42;;;;;;;;;;;17.80;41.40;;;;;;500224;237;2196;-47
2021/04/14 02:02:41;;;;;;;;;;;18.00;40.90;;;;;;500202;237;1263;-47
2021/04/14 02:04:42;;;;;;;;;;;18.40;40.00;;;;;;500218;237;1130;-46
2021/04/14 02:06:43;;;;;;;;;;;18.90;39.20;;;;;;500176;237;1050;-46
2021/04/14 02:08:44;;;;;;;;;;;19.10;38.60;;;;;;500228;237;1045;-46
2021/04/14 02:10:46;;;;;;;;;;;19.30;38.10;;;;;;500229;237;1118;-44
2021/04/14 02:12:47;;;;;;;;;;;19.50;37.80;;;;;;498714;238;1034;-44
2021/04/14 02:14:48;;;;;;;;;;;19.60;37.60;;;;;;499415;238;1081;-44
2021/04/14 02:16:50;;;;;;;;;;;19.70;37.40;;;;;;500313;237;1042;-44
2021/04/14 02:18:51;;;;;;;;;;;19.80;37.20;;;;;;500188;237;940;-44
2021/04/14 02:20:52;;;;;;;;;;;19.80;37.10;;;;;;500189;237;2256;-44
2021/04/14 02:22:54;;;;;;;;;;;19.90;37.00;;;;;;500315;237;1189;-44
2021/04/14 02:24:55;;;;;;;;;;;19.90;36.90;;;;;;500218;237;1014;-44
2021/04/14 02:26:56;;;;;;;;;;;20.00;36.80;;;;;;500228;237;1209;-44
2021/04/14 02:28:57;;;;;;;;;;;20.00;36.80;;;;;;500318;237;1051;-44
2021/04/14 02:30:59;;;;;;;;;;;20.10;36.70;;;;;;500218;237;1087;-44
2021/04/14 02:33:00;;;;;;;;;;;20.10;36.50;;;;;;500195;237;1176;-44
2021/04/14 02:35:01;;;;;;;;;;;20.10;36.50;;;;;;500221;237;1061;-44
2021/04/14 02:37:02;;;;;;;;;;;20.10;36.40;;;;;;500232;237;1203;-44
2021/04/14 02:39:04;;;;;;;;;;;20.20;36.40;;;;;;500274;237;1030;-44
2021/04/14 02:41:05;;;;;;;;;;;20.20;36.40;;;;;;500197;237;2147;-44
2021/04/14 02:43:06;;;;;;;;;;;20.30;36.30;;;;;;500287;237;1015;-44
2021/04/14 02:45:08;;;;;;;;;;;20.30;36.20;;;;;;500219;237;1048;-44
2021/04/14 02:47:09;;;;;;;;;;;20.30;36.20;;;;;;500153;237;1333;-44
2021/04/14 02:49:10;;;;;;;;;;;20.30;36.10;;;;;;500292;237;996;-44
2021/04/14 02:51:11;;;;;;;;;;;20.40;36.10;;;;;;500152;237;1153;-44
2021/04/14 02:53:13;;;;;;;;;;;20.40;36.00;;;;;;500274;237;1166;-44
2021/04/14 02:55:14;;;;;;;;;;;20.40;36.00;;;;;;500216;237;1117;-44
2021/04/14 02:57:15;;;;;;;;;;;20.40;36.00;;;;;;500116;237;1196;-44
2021/04/14 02:59:17;;;;;;;;;;;20.50;36.00;;;;;;500183;237;966;-44
2021/04/14 03:01:18;;;;;;;;;;;20.50;35.90;;;;;;500109;237;2172;-44
2021/04/14 03:03:19;;;;;;;;;;;20.50;35.80;;;;;;500182;237;1146;-44
2021/04/14 03:05:23;;;;;;;;;;;20.50;35.80;;;;;;500323;237;1087;-44
2021/04/14 03:07:22;;;;;;;;;;;20.60;35.80;;;;;;500163;237;1919;-44
2021/04/14 03:09:23;;;;;;;;;;;20.60;35.70;;;;;;500175;237;1137;-44
2021/04/14 03:11:24;;;;;;;;;;;20.70;35.70;;;;;;500273;237;1435;-44
2021/04/14 03:13:26;;;;;;;;;;;20.60;35.60;;;;;;500188;238;1042;-44
2021/04/14 03:15:27;;;;;;;;;;;20.60;35.60;;;;;;500335;237;1070;-44
2021/04/14 03:17:28;;;;;;;;;;;20.70;35.60;;;;;;500159;237;1168;-44
2021/04/14 03:19:30;;;;;;;;;;;20.70;35.60;;;;;;500232;237;1045;-44
2021/04/14 03:21:31;;;;;;;;;;;20.70;35.60;;;;;;500045;238;2140;-44
2021/04/14 03:23:32;;;;;;;;;;;20.70;35.50;;;;;;500214;237;1075;-44
2021/04/14 03:25:33;;;;;;;;;;;20.70;35.50;;;;;;500121;237;1292;-44
2021/04/14 03:27:35;;;;;;;;;;;20.80;35.50;;;;;;500194;237;990;-44
2021/04/14 03:29:36;;;;;;;;;;;20.80;35.50;;;;;;500333;237;1102;-44
2021/04/14 03:31:37;;;;;;;;;;;20.80;35.50;;;;;;500130;237;1023;-44
2021/04/14 03:33:39;;;;;;;;;;;20.80;35.40;;;;;;500266;237;1249;-44
2021/04/14 03:35:40;;;;;;;;;;;20.80;35.50;;;;;;500361;237;1007;-44
2021/04/14 03:37:41;;;;;;;;;;;20.80;35.40;;;;;;500178;237;1082;-44
2021/04/14 03:39:42;;;;;;;;;;;20.90;35.40;;;;;;500155;237;1103;-44
2021/04/14 03:41:44;;;;;;;;;;;20.90;35.40;;;;;;500166;237;2179;-44
2021/04/14 03:43:46;;;;;;;;;;;20.90;35.30;;;;;;500161;237;1002;-44
2021/04/14 03:45:51;;;;;;;;;;;20.90;35.30;;;;;;500070;237;1696;-44
2021/04/14 03:47:48;;;;;;;;;;;20.90;35.30;;;;;;500282;237;1511;-44
2021/04/14 03:49:49;;;;;;;;;;;20.90;35.30;;;;;;500210;237;1183;-44
2021/04/14 03:51:50;;;;;;;;;;;20.90;35.30;;;;;;500048;237;1167;-44
2021/04/14 03:53:51;;;;;;;;;;;20.90;35.20;;;;;;500279;237;1089;-44
2021/04/14 03:55:53;;;;;;;;;;;21.00;35.30;;;;;;500186;237;1439;-43
2021/04/14 03:57:54;;;;;;;;;;;21.00;35.20;;;;;;500148;237;1358;-44
2021/04/14 03:59:55;;;;;;;;;;;21.00;35.20;;;;;;500289;237;1087;-44
2021/04/14 04:01:56;;;;;;;;;;;21.00;35.20;;;;;;500072;237;2183;-44
2021/04/14 04:03:58;;;;;;;;;;;21.00;35.20;;;;;;500163;237;1148;-44
2021/04/14 04:05:59;;;;;;;;;;;21.00;35.20;;;;;;500268;237;1469;-44
2021/04/14 04:08:00;;;;;;;;;;;21.00;35.10;;;;;;500070;237;1136;-44
2021/04/14 04:10:02;;;;;;;;;;;21.00;35.10;;;;;;500217;237;958;-44
2021/04/14 04:12:06;;;;;;;;;;;21.10;35.20;;;;;;500159;237;1511;-44
2021/04/14 04:14:04;;;;;;;;;;;21.10;35.10;;;;;;500149;237;1328;-44
2021/04/14 04:16:05;;;;;;;;;;;21.10;35.10;;;;;;500096;237;1352;-44
2021/04/14 04:18:07;;;;;;;;;;;21.10;35.10;;;;;;500217;237;1189;-44
2021/04/14 04:20:08;;;;;;;;;;;21.10;35.10;;;;;;500181;237;1147;-44
2021/04/14 04:22:09;;;;;;;;;;;21.10;35.10;;;;;;500038;237;2124;-44
2021/04/14 04:24:10;;;;;;;;;;;21.10;35.10;;;;;;500108;237;1286;-44
2021/04/14 04:26:12;;;;;;;;;;;21.10;35.10;;;;;;500017;237;1578;-44
2021/04/14 04:28:13;;;;;;;;;;;21.10;35.00;;;;;;500039;237;1054;-44
2021/04/14 04:30:14;;;;;;;;;;;21.10;35.10;;;;;;500148;237;1187;-44
2021/04/14 04:32:16;;;;;;;;;;;21.10;35.00;;;;;;500083;237;1169;-44
2021/04/14 04:34:17;;;;;;;;;;;21.20;35.10;;;;;;500100;237;1139;-44
2021/04/14 04:36:18;;;;;;;;;;;21.10;35.00;;;;;;500073;237;1139;-44
2021/04/14 04:38:19;;;;;;;;;;;21.20;35.10;;;;;;500135;237;970;-44
2021/04/14 04:40:21;;;;;;;;;;;21.20;35.10;;;;;;500024;237;1002;-44
2021/04/14 04:42:22;;;;;;;;;;;21.20;35.00;;;;;;500075;237;1126;-44
2021/04/14 04:44:23;;;;;;;;;;;21.20;35.10;;;;;;499346;237;1249;-44
2021/04/14 04:46:25;;;;;;;;;;;21.20;35.10;;;;;;499968;237;1555;-44
2021/04/14 04:48:26;;;;;;;;;;;21.20;35.00;;;;;;500060;237;1050;-44
2021/04/14 04:50:27;;;;;;;;;;;21.20;35.00;;;;;;500072;237;1181;-44
2021/04/14 04:52:28;;;;;;;;;;;21.20;35.00;;;;;;500084;237;1489;-44
2021/04/14 04:54:30;;;;;;;;;;;21.20;35.00;;;;;;500006;237;1090;-45
2021/04/14 04:56:31;;;;;;;;;;;21.20;35.00;;;;;;499913;237;1490;-44
2021/04/14 04:58:32;;;;;;;;;;;21.20;35.00;;;;;;499969;237;1235;-44
2021/04/14 05:00:33;;;;;;;;;;;21.20;35.00;;;;;;499903;237;2183;-44
2021/04/14 05:02:35;;;;;;;;;;;21.20;35.00;;;;;;499989;237;1301;-44
2021/04/14 05:04:36;;;;;;;;;;;21.20;35.00;;;;;;500065;237;1163;-44
2021/04/14 05:06:37;;;;;;;;;;;21.20;34.90;;;;;;500121;237;1287;-44
2021/04/14 05:08:39;;;;;;;;;;;21.20;35.00;;;;;;499952;237;1067;-44
2021/04/14 05:10:40;;;;;;;;;;;21.20;34.90;;;;;;500043;237;1093;-44
2021/04/14 05:12:41;;;;;;;;;;;21.20;34.90;;;;;;499964;237;1039;-44
2021/04/14 05:14:42;;;;;;;;;;;21.30;34.90;;;;;;499988;237;1111;-44
2021/04/14 05:16:44;;;;;;;;;;;21.30;34.80;;;;;;499986;237;1075;-44
2021/04/14 05:18:45;;;;;;;;;;;21.30;34.90;;;;;;499956;237;1223;-44
2021/04/14 05:20:47;;;;;;;;;;;21.30;34.90;;;;;;499919;237;2175;-44
2021/04/14 05:22:48;;;;;;;;;;;21.30;34.90;;;;;;499976;237;1135;-44
2021/04/14 05:24:49;;;;;;;;;;;21.30;34.80;;;;;;500054;237;1117;-47
2021/04/14 05:26:50;;;;;;;;;;;21.30;34.80;;;;;;499938;237;1128;-44
2021/04/14 05:28:52;;;;;;;;;;;21.30;34.80;;;;;;499927;237;1105;-44
2021/04/14 05:30:53;;;;;;;;;;;21.30;34.80;;;;;;500000;237;1142;-44
2021/04/14 05:32:54;;;;;;;;;;;21.30;34.80;;;;;;499978;237;1036;-44
2021/04/14 05:34:56;;;;;;;;;;;21.30;34.80;;;;;;500070;237;1184;-47
2021/04/14 05:36:57;;;;;;;;;;;21.30;34.80;;;;;;500168;237;1029;-47
2021/04/14 05:38:58;;;;;;;;;;;21.30;34.80;;;;;;499960;237;1090;-47
2021/04/14 05:40:59;;;;;;;;;;;21.30;34.80;;;;;;499964;237;2179;-44
2021/04/14 05:43:01;;;;;;;;;;;21.30;34.80;;;;;;499931;237;1014;-44
2021/04/14 05:45:02;;;;;;;;;;;21.30;34.70;;;;;;499892;237;1024;-44
2021/04/14 05:47:03;;;;;;;;;;;21.40;34.80;;;;;;499859;237;1076;-44
2021/04/14 05:49:05;;;;;;;;;;;21.30;34.70;;;;;;499967;237;1032;-44
2021/04/14 05:51:06;;;;;;;;;;;21.40;34.80;;;;;;499864;237;1209;-44
2021/04/14 05:53:07;;;;;;;;;;;21.30;34.70;;;;;;500030;237;1055;-44
2021/04/14 05:55:08;;;;;;;;;;;21.40;34.70;;;;;;499853;237;1080;-44
2021/04/14 05:57:10;;;;;;;;;;;21.40;34.70;;;;;;499775;237;1080;-44
2021/04/14 05:59:12;;;;;;;;;;;21.40;34.70;;;;;;499902;237;1093;-44
2021/04/14 06:01:13;;;;;;;;;;;21.40;34.70;;;;;;499857;237;2172;-43
2021/04/14 06:03:14;;;;;;;;;;;21.40;34.70;;;;;;499924;237;1088;-44
2021/04/14 06:05:15;;;;;;;;;;;21.40;34.70;;;;;;499875;237;1159;-44
2021/04/14 06:07:16;;;;;;;;;;;21.40;34.70;;;;;;499881;237;1056;-44
2021/04/14 06:09:18;;;;;;;;;;;21.40;34.70;;;;;;499745;237;1053;-44
2021/04/14 06:11:19;;;;;;;;;;;21.40;34.60;;;;;;499797;237;1216;-44
2021/04/14 06:13:20;;;;;;;;;;;21.40;34.60;;;;;;499777;237;1369;-44
2021/04/14 06:15:21;;;;;;;;;;;21.40;34.70;;;;;;499928;237;1111;-44
2021/04/14 06:17:23;;;;;;;;;;;21.40;34.60;;;;;;499766;237;1335;-44
2021/04/14 06:19:24;;;;;;;;;;;21.40;34.60;;;;;;499727;237;1060;-44
2021/04/14 06:21:25;;;;;;;;;;;21.40;34.60;;;;;;499664;237;2175;-44
2021/04/14 06:23:27;;;;;;;;;;;21.40;34.60;;;;;;499792;237;1122;-44
2021/04/14 06:25:30;;;;;;;;;;;21.40;34.60;;;;;;499831;237;1074;-44
2021/04/14 06:27:34;;;;;;;;;;;21.40;34.60;;;;;;499655;237;1920;-44
2021/04/14 06:29:32;;;;;;;;;;;21.40;34.60;;;;;;499716;237;2200;-44
2021/04/14 06:31:40;;;;;;;;;;;21.50;34.60;;;;;;499728;238;1241;-44
2021/04/14 06:33:37;;;;;;;;;;;21.50;34.60;;;;;;499545;237;1850;-44
2021/04/14 06:35:37;;;;;;;;;;;21.40;34.60;;;;;;499414;237;1253;-44
2021/04/14 06:37:38;;;;;;;;;;;21.40;34.50;;;;;;499612;237;1152;-44
2021/04/14 06:39:40;;;;;;;;;;;21.50;34.50;;;;;;499736;237;1142;-44
2021/04/14 06:41:55;;;;;;;;;;;21.50;34.50;;;;;;499651;237;2136;-44
2021/04/14 06:43:54;;;;;;;;;;;21.50;34.50;;;;;;499650;237;1216;-44
2021/04/14 06:45:55;;;;;;;;;;;21.50;34.50;;;;;;499616;237;1081;-44
2021/04/14 06:47:57;;;;;;;;;;;21.50;34.50;;;;;;499769;237;1186;-44
2021/04/14 06:49:58;;;;;;;;;;;21.40;34.50;;;;;;499688;237;1190;-44
2021/04/14 06:51:59;;;;;;;;;;;21.50;34.60;;;;;;498628;237;2147;-44
2021/04/14 06:54:00;;;;;;;;;;;21.40;34.50;;;;;;499536;237;1065;-46
2021/04/14 06:56:02;;;;;;;;;;;21.50;34.60;;;;;;499477;237;1292;-47
2021/04/14 06:58:03;;;;;;;;;;;21.50;34.50;;;;;;499562;237;1172;-44
2021/04/14 07:00:04;;;;;;;;;;;21.50;34.50;;;;;;499576;237;1083;-47
2021/04/14 07:02:05;;;;;;;;;;;21.50;34.50;;;;;;499384;237;2645;-46
2021/04/14 07:04:07;;;;;;;;;;;21.50;34.50;;;;;;499440;237;1120;-44
2021/04/14 07:06:08;;;;;;;;;;;21.50;34.50;;;;;;499432;237;1239;-44
2021/04/14 07:08:09;;;;;;;;;;;21.50;34.50;;;;;;499538;237;1152;-44
2021/04/14 07:10:11;;;;;;;;;;;21.50;34.50;;;;;;499453;237;1058;-44
2021/04/14 07:12:12;;;;;;;;;;;21.50;34.50;;;;;;499436;237;1263;-44
2021/04/14 07:14:13;;;;;;;;;;;21.50;34.50;;;;;;499574;237;1116;-44
2021/04/14 07:16:14;;;;;;;;;;;21.50;34.50;;;;;;499406;237;1067;-44
2021/04/14 07:18:16;;;;;;;;;;;21.50;34.40;;;;;;499527;237;1086;-44
2021/04/14 07:20:17;;;;;;;;;;;21.60;34.40;;;;;;499436;237;1090;-44
2021/04/14 07:22:19;;;;;;;;;;;21.60;34.40;;;;;;499412;237;2172;-47
2021/04/14 07:24:20;;;;;;;;;;;21.50;34.40;;;;;;499623;237;1192;-47
2021/04/14 07:26:21;;;;;;;;;;;21.60;34.40;;;;;;499478;237;1095;-47
2021/04/14 07:28:22;;;;;;;;;;;21.60;34.40;;;;;;499553;237;1056;-44
2021/04/14 07:30:24;;;;;;;;;;;21.60;34.40;;;;;;499545;237;1058;-44
2021/04/14 07:32:25;;;;;;;;;;;21.60;34.40;;;;;;498918;237;1163;-44
2021/04/14 07:34:26;;;;;;;;;;;21.60;34.50;;;;;;489280;243;1218;-44
2021/04/14 07:36:27;;;;;;;;;;;21.60;34.40;;;;;;482350;246;1171;-44
2021/04/14 07:38:29;;;;;;;;;;;21.60;34.40;;;;;;483770;246;1102;-44
2021/04/14 07:40:30;;;;;;;;;;;21.60;34.40;;;;;;482254;246;1074;-44
2021/04/14 07:42:32;;;;;;;;;;;21.60;34.40;;;;;;482396;246;2969;-46
2021/04/14 07:44:33;;;;;;;;;;;21.50;34.40;;;;;;482337;246;1572;-47
2021/04/14 07:46:34;;;;;;;;;;;21.60;34.40;;;;;;482452;246;1100;-44
2021/04/14 07:48:39;;;;;;;;;;;21.60;34.40;;;;;;482370;246;1124;-44
2021/04/14 07:50:37;;;;;;;;;;;21.60;34.40;;;;;;481942;247;1327;-47
2021/04/14 07:52:38;;;;;;;;;;;21.60;34.40;;;;;;482038;246;1185;-44
2021/04/14 07:54:39;;;;;;;;;;;21.60;34.50;;;;;;481920;246;1241;-44
2021/04/14 07:56:41;;;;;;;;;;;21.60;34.40;;;;;;482247;246;1085;-44
2021/04/14 07:58:42;;;;;;;;;;;21.60;34.40;;;;;;482448;246;1072;-47
2021/04/14 08:00:44;;;;;;;;;;;21.60;34.40;;;;;;482416;246;1206;-47
2021/04/14 08:02:45;;;;;;;;;;;21.60;34.40;;;;;;482448;246;2181;-46
2021/04/14 08:04:46;;;;;;;;;;;21.60;34.40;;;;;;482329;246;1074;-47
2021/04/14 08:06:48;;;;;;;;;;;21.60;34.40;;;;;;482324;246;1200;-47
2021/04/14 08:08:49;;;;;;;;;;;21.60;34.30;;;;;;482391;246;1079;-47
2021/04/14 08:10:50;;;;;;;;;;;21.60;34.40;;;;;;482283;246;1107;-44
2021/04/14 08:12:52;;;;;;;;;;;21.60;34.40;;;;;;482413;246;1087;-44
2021/04/14 08:14:53;;;;;;;;;;;21.60;34.40;;;;;;482250;246;1065;-44
2021/04/14 08:16:54;;;;;;;;;;;21.60;34.30;;;;;;482244;246;1454;-44
2021/04/14 08:18:55;;;;;;;;;;;21.60;34.30;;;;;;482360;246;1128;-44
2021/04/14 08:20:57;;;;;;;;;;;21.60;34.30;;;;;;482278;246;1373;-44
2021/04/14 08:22:59;;;;;;;;;;;21.60;34.20;;;;;;482272;246;2184;-44
2021/04/14 08:25:01;;;;;;;;;;;21.70;34.30;;;;;;482318;246;1126;-44
2021/04/14 08:27:01;;;;;;;;;;;21.60;34.30;;;;;;482187;247;1997;-44
2021/04/14 08:29:02;;;;;;;;;;;21.60;34.30;;;;;;482372;246;1139;-44
2021/04/14 08:31:04;;;;;;;;;;;21.60;34.30;;;;;;482377;246;1441;-44
2021/04/14 08:33:05;;;;;;;;;;;21.70;34.30;;;;;;482278;246;1117;-44
2021/04/14 08:35:06;;;;;;;;;;;21.60;34.30;;;;;;482302;246;1128;-44
2021/04/14 08:37:07;;;;;;;;;;;21.60;34.30;;;;;;482480;246;1251;-44
2021/04/14 08:39:09;;;;;;;;;;;21.60;34.30;;;;;;482550;246;749;-44
2021/04/14 08:41:10;;;;;;;;;;;21.60;34.20;;;;;;482425;246;1376;-45
2021/04/14 08:43:11;;;;;;;;;;;21.60;34.20;;;;;;482702;246;2168;-45
2021/04/14 08:45:13;;;;;;;;;;;21.70;34.30;;;;;;482356;246;1182;-45
2021/04/14 08:47:14;;;;;;;;;;;21.60;34.30;;;;;;482310;246;1236;-45
2021/04/14 08:49:15;;;;;;;;;;;21.60;34.20;;;;;;482418;246;1097;-45
2021/04/14 08:51:16;;;;;;;;;;;21.70;34.30;;;;;;482312;246;1234;-45
2021/04/14 08:53:18;;;;;;;;;;;21.70;34.30;;;;;;482418;246;1214;-45
2021/04/14 08:55:19;;;;;;;;;;;21.60;34.20;;;;;;482272;246;1175;-45
2021/04/14 08:57:21;;;;;;;;;;;21.60;34.30;;;;;;482307;246;1227;-45
2021/04/14 08:59:22;;;;;;;;;;;21.60;34.30;;;;;;482519;246;1594;-45
2021/04/14 09:01:23;;;;;;;;;;;21.70;34.20;;;;;;482416;246;1081;-45
2021/04/14 09:03:25;;;;;;;;;;;21.70;34.20;;;;;;482415;246;2197;-45
2021/04/14 09:05:25;;;;;;;;;;;21.70;34.20;;;;;;482182;246;1101;-45
2021/04/14 09:07:27;;;;;;;;;;;21.70;34.20;;;;;;482166;246;1164;-45
2021/04/14 09:09:29;;;;;;;;;;;21.70;34.20;;;;;;482336;246;1186;-45
2021/04/14 09:11:30;;;;;;;;;;;21.70;34.20;;;;;;482121;246;1141;-46
2021/04/14 09:13:31;;;;;;;;;;;21.70;34.20;;;;;;482219;246;1068;-45
2021/04/14 09:15:32;;;;;;;;;;;21.70;34.20;;;;;;482302;246;1068;-45
2021/04/14 09:17:33;;;;;;;;;;;21.70;34.20;;;;;;482267;246;1124;-45
2021/04/14 09:19:35;;;;;;;;;;;21.70;34.20;;;;;;481499;246;1086;-45
2021/04/14 09:21:36;;;;;;;;;;;21.70;34.20;;;;;;482065;246;1277;-45
2021/04/14 09:23:37;;;;;;;;;;;21.70;34.20;;;;;;482508;242;2188;-45
2021/04/14 09:25:39;;;;;;;;;;;21.70;34.20;;;;;;482203;246;1086;-45
2021/04/14 09:27:40;;;;;;;;;;;21.70;34.20;;;;;;482335;246;1059;-45
2021/04/14 09:29:41;;;;;;;;;;;21.70;34.20;;;;;;482532;246;1183;-45
2021/04/14 09:31:43;;;;;;;;;;;21.70;34.10;;;;;;482318;246;1186;-45
2021/04/14 09:33:45;;;;;;;;;;;21.70;34.10;;;;;;482436;246;1069;-45
2021/04/14 09:35:45;;;;;;;;;;;21.80;34.20;;;;;;482209;246;1911;-45
2021/04/14 09:37:47;;;;;;;;;;;21.70;34.20;;;;;;482258;246;1131;-45
2021/04/14 09:39:50;;;;;;;;;;;21.80;34.00;;;;;;482218;246;1108;-45
2021/04/14 09:41:50;;;;;;;;;;;21.50;34.60;;;;;;482036;246;1662;-45
2021/04/14 09:43:51;;;;;;;;;;;20.90;35.50;;;;;;482886;242;2188;-45
2021/04/14 09:45:52;;;;;;;;;;;20.40;36.30;;;;;;482192;246;1097;-45
2021/04/14 09:47:54;;;;;;;;;;;20.10;36.90;;;;;;482459;246;1157;-45
2021/04/14 09:49:55;;;;;;;;;;;19.90;37.40;;;;;;482341;246;1179;-45
2021/04/14 09:51:57;;;;;;;;;;;19.80;37.70;;;;;;482263;246;1120;-45
2021/04/14 09:53:59;;;;;;;;;;;19.60;37.90;;;;;;482361;246;1135;-45
2021/04/14 09:55:59;;;;;;;;;;;19.50;38.10;;;;;;482160;247;1830;-45
2021/04/14 09:58:00;;;;;;;;;;;19.50;38.20;;;;;;482210;246;2207;-45
2021/04/14 10:00:02;;;;;;;;;;;19.40;38.30;;;;;;482343;246;1053;-45
2021/04/14 10:02:03;;;;;;;;;;;19.40;38.60;;;;;;482311;246;1182;-44
2021/04/14 10:04:04;;;;;;;;;;;19.30;38.60;;;;;;482371;246;2183;-44
2021/04/14 10:06:06;;;;;;;;;;;19.20;38.70;;;;;;482312;246;1434;-45
2021/04/14 10:08:07;;;;;;;;;;;19.20;38.70;;;;;;482421;246;1112;-45
2021/04/14 10:10:08;;;;;;;;;;;19.20;38.70;;;;;;482162;246;1095;-45
2021/04/14 10:12:09;;;;;;;;;;;19.20;38.80;;;;;;482397;246;1355;-45
2021/04/14 10:14:11;;;;;;;;;;;19.10;38.90;;;;;;482657;246;856;-45
2021/04/14 10:16:12;;;;;;;;;;;19.00;39.00;;;;;;482591;246;1178;-45
2021/04/14 10:18:13;;;;;;;;;;;19.00;39.10;;;;;;482792;246;1325;-45
2021/04/14 10:20:15;;;;;;;;;;;19.00;39.10;;;;;;482665;246;1168;-45
2021/04/14 10:22:16;;;;;;;;;;;19.00;39.20;;;;;;482423;246;1335;-45
2021/04/14 10:24:17;;;;;;;;;;;18.90;39.10;;;;;;482380;246;1243;-44
2021/04/14 10:26:18;;;;;;;;;;;18.90;39.20;;;;;;482299;246;1099;-45
2021/04/14 10:28:21;;;;;;;;;;;18.90;39.20;;;;;;482285;246;1120;-45
2021/04/14 10:30:22;;;;;;;;;;;18.90;39.30;;;;;;482297;246;1077;-45
2021/04/14 10:32:24;;;;;;;;;;;18.90;39.30;;;;;;482109;246;1221;-45
2021/04/14 10:34:25;;;;;;;;;;;18.80;39.30;;;;;;482419;246;1092;-45
2021/04/14 10:36:26;;;;;;;;;;;18.80;39.30;;;;;;481625;246;1331;-45
2021/04/14 10:38:28;;;;;;;;;;;18.70;39.40;;;;;;482360;246;1205;-45
2021/04/14 10:40:29;;;;;;;;;;;18.70;39.30;;;;;;481498;246;1312;-45
2021/04/14 10:42:30;;;;;;;;;;;18.80;39.30;;;;;;482162;246;2192;-45
2021/04/14 10:44:31;;;;;;;;;;;18.80;39.20;;;;;;482354;246;1201;-45
2021/04/14 10:46:35;;;;;;;;;;;18.70;39.30;;;;;;482170;246;1300;-45
2021/04/14 10:48:34;;;;;;;;;;;18.70;39.30;;;;;;482222;246;1698;-45
2021/04/14 10:50:35;;;;;;;;;;;18.70;39.30;;;;;;482307;246;1145;-45
2021/04/14 10:52:37;;;;;;;;;;;18.70;39.50;;;;;;482321;246;1142;-44
2021/04/14 10:54:38;;;;;;;;;;;18.70;39.50;;;;;;482254;246;1140;-45
2021/04/14 10:56:39;;;;;;;;;;;18.60;39.40;;;;;;482041;246;1073;-45
2021/04/14 10:58:40;;;;;;;;;;;18.60;39.40;;;;;;482255;246;1123;-45
2021/04/14 11:00:42;;;;;;;;;;;18.60;39.40;;;;;;482224;246;1078;-45
2021/04/14 11:02:43;;;;;;;;;;;18.60;39.50;;;;;;482181;246;2197;-44
2021/04/14 11:04:44;;;;;;;;;;;18.60;39.50;;;;;;482365;246;1141;-45
2021/04/14 11:06:46;;;;;;;;;;;18.60;39.50;;;;;;482322;246;1101;-45
2021/04/14 11:08:47;;;;;;;;;;;18.60;39.40;;;;;;482571;242;1330;-45
2021/04/14 11:10:48;;;;;;;;;;;18.60;39.50;;;;;;482445;246;1133;-45
2021/04/14 11:12:50;;;;;;;;;;;18.60;39.40;;;;;;482546;246;1114;-45
2021/04/14 11:14:51;;;;;;;;;;;18.60;39.40;;;;;;482440;246;1171;-45
2021/04/14 11:16:52;;;;;;;;;;;18.60;39.30;;;;;;482339;246;1127;-45
2021/04/14 11:18:54;;;;;;;;;;;18.60;39.20;;;;;;482472;246;1093;-45
2021/04/14 11:20:58;;;;;;;;;;;18.70;39.20;;;;;;482412;246;1417;-45
2021/04/14 11:22:57;;;;;;;;;;;18.70;39.00;;;;;;482255;246;2183;-45
2021/04/14 11:24:58;;;;;;;;;;;18.70;39.00;;;;;;482476;246;1210;-45
2021/04/14 11:26:59;;;;;;;;;;;18.80;38.90;;;;;;482518;246;1145;-45
2021/04/14 11:29:00;;;;;;;;;;;18.80;38.90;;;;;;482457;246;1195;-45
2021/04/14 11:31:03;;;;;;;;;;;18.80;38.80;;;;;;482396;246;1140;-45
2021/04/14 11:33:03;;;;;;;;;;;18.80;38.70;;;;;;482853;246;1421;-44
2021/04/14 11:35:04;;;;;;;;;;;18.80;38.70;;;;;;482579;246;1059;-45
2021/04/14 11:37:05;;;;;;;;;;;18.80;38.70;;;;;;482430;246;1512;-45
2021/04/14 11:39:07;;;;;;;;;;;18.80;38.80;;;;;;482436;246;1205;-44
2021/04/14 11:41:08;;;;;;;;;;;18.70;38.90;;;;;;482382;246;1187;-45
2021/04/14 11:43:09;;;;;;;;;;;18.60;38.90;;;;;;482493;246;2176;-45
2021/04/14 11:45:11;;;;;;;;;;;18.60;39.20;;;;;;482574;246;1180;-45
2021/04/14 11:47:12;;;;;;;;;;;18.50;39.20;;;;;;482481;246;1097;-45
2021/04/14 11:49:13;;;;;;;;;;;18.50;39.30;;;;;;482493;246;1094;-45
2021/04/14 11:51:14;;;;;;;;;;;18.50;39.30;;;;;;482383;246;1092;-45
2021/04/14 11:53:16;;;;;;;;;;;18.40;39.30;;;;;;482447;246;1177;-45
2021/04/14 11:55:17;;;;;;;;;;;18.40;39.30;;;;;;482523;246;1626;-45
2021/04/14 11:57:18;;;;;;;;;;;18.40;39.30;;;;;;482322;246;1219;-45